createdAt,value
2023-05-02T00:02:08.089Z,9.80
2023-05-02T00:04:36.413Z,9.80
2023-05-02T00:07:04.433Z,9.80
2023-05-02T00:09:32.315Z,9.77
2023-05-02T00:11:59.961Z,9.71
2023-05-02T00:14:27.638Z,9.72
2023-05-02T00:17:18.740Z,9.73
2023-05-02T00:19:47.256Z,9.64
2023-05-02T00:22:14.918Z,9.61
2023-05-02T00:24:42.670Z,9.60
2023-05-02T00:27:10.668Z,9.57
2023-05-02T00:29:38.859Z,9.56
2023-05-02T00:32:07.090Z,9.50
2023-05-02T00:34:34.823Z,9.51
2023-05-02T00:37:14.288Z,9.49
2023-05-02T00:39:42.037Z,9.46
2023-05-02T00:42:09.724Z,9.51
2023-05-02T00:44:37.383Z,9.52
2023-05-02T00:47:05.766Z,9.53
2023-05-02T00:49:33.898Z,9.50
2023-05-02T00:52:01.996Z,9.44
2023-05-02T00:54:31.387Z,9.43
2023-05-02T00:56:59.082Z,9.43
2023-05-02T00:59:27.253Z,9.45
2023-05-02T01:02:33.711Z,9.46
2023-05-02T01:05:23.140Z,9.41
2023-05-02T01:08:15.120Z,9.42
2023-05-02T01:10:48.964Z,9.42
2023-05-02T01:13:28.441Z,9.39
2023-05-02T01:16:00.099Z,9.42
2023-05-02T01:18:35.722Z,9.41
2023-05-02T01:21:07.978Z,9.36
2023-05-02T01:23:46.223Z,9.37
2023-05-02T01:26:21.896Z,9.33
2023-05-02T01:29:17.777Z,9.31
2023-05-02T01:31:49.812Z,9.24
2023-05-02T01:34:20.062Z,9.22
2023-05-02T01:37:14.612Z,9.17
2023-05-02T01:39:44.302Z,9.22
2023-05-02T01:42:13.657Z,9.22
2023-05-02T01:44:42.525Z,9.21
2023-05-02T01:47:10.763Z,9.20
2023-05-02T01:50:05.374Z,9.17
2023-05-02T01:52:33.715Z,9.12
2023-05-02T01:55:04.057Z,9.14
2023-05-02T01:57:32.716Z,9.19
2023-05-02T02:00:02.031Z,9.15
2023-05-02T02:02:31.073Z,9.13
2023-05-02T02:05:01.313Z,9.15
2023-05-02T02:07:29.184Z,9.12
2023-05-02T02:09:57.232Z,9.14
2023-05-02T02:12:28.957Z,9.10
2023-05-02T02:15:02.243Z,9.12
2023-05-02T02:17:38.190Z,9.13
2023-05-02T02:20:10.421Z,9.14
2023-05-02T02:22:41.395Z,9.16
2023-05-02T02:25:13.107Z,9.15
2023-05-02T02:27:41.883Z,9.14
2023-05-02T02:30:11.010Z,9.11
2023-05-02T02:32:38.901Z,9.09
2023-05-02T02:35:07.393Z,9.12
2023-05-02T02:37:41.172Z,9.12
2023-05-02T02:40:40.061Z,9.18
2023-05-02T02:43:29.887Z,9.14
2023-05-02T02:46:09.556Z,9.09
2023-05-02T02:48:53.918Z,9.04
2023-05-02T02:51:47.055Z,9.07
2023-05-02T02:54:27.402Z,9.05
2023-05-02T02:57:13.080Z,9.03
2023-05-02T02:59:51.970Z,9.03
2023-05-02T03:02:27.599Z,9.01
2023-05-02T03:04:57.481Z,8.97
2023-05-02T03:07:28.692Z,8.98
2023-05-02T03:09:56.314Z,8.92
2023-05-02T03:12:23.938Z,8.97
2023-05-02T03:14:53.054Z,8.96
2023-05-02T03:17:21.257Z,8.94
2023-05-02T03:19:48.909Z,8.95
2023-05-02T03:22:16.600Z,8.93
2023-05-02T03:24:44.214Z,8.93
2023-05-02T03:27:12.178Z,8.94
2023-05-02T03:29:39.883Z,8.94
2023-05-02T03:32:07.681Z,8.92
2023-05-02T03:34:35.855Z,8.94
2023-05-02T03:37:03.514Z,8.97
2023-05-02T03:39:31.138Z,8.85
2023-05-02T03:41:58.775Z,8.86
2023-05-02T03:44:26.569Z,8.92
2023-05-02T03:46:54.290Z,8.92
2023-05-02T03:49:21.996Z,8.97
2023-05-02T03:51:49.736Z,8.95
2023-05-02T03:54:32.609Z,8.98
2023-05-02T03:57:01.081Z,8.95
2023-05-02T03:59:30.409Z,8.98
2023-05-02T04:01:58.103Z,8.99
2023-05-02T04:04:25.894Z,9.00
2023-05-02T04:06:53.711Z,8.98
2023-05-02T04:09:25.309Z,8.95
2023-05-02T04:11:54.363Z,9.05
2023-05-02T04:14:22.183Z,9.06
2023-05-02T04:16:50.763Z,9.07
2023-05-02T04:19:19.467Z,9.13
2023-05-02T04:21:47.085Z,9.13
2023-05-02T04:24:14.928Z,9.23
2023-05-02T04:26:42.641Z,9.23
2023-05-02T04:30:01.233Z,9.31
2023-05-02T04:32:29.544Z,9.27
2023-05-02T04:34:57.286Z,9.27
2023-05-02T04:37:25.781Z,9.34
2023-05-02T04:39:53.508Z,9.36
2023-05-02T04:42:21.455Z,9.48
2023-05-02T04:44:49.622Z,9.52
2023-05-02T04:47:17.325Z,9.57
2023-05-02T04:50:13.424Z,9.57
2023-05-02T04:52:41.087Z,9.59
2023-05-02T04:55:09.308Z,9.62
2023-05-02T04:57:37.105Z,9.70
2023-05-02T05:00:05.736Z,9.78
2023-05-02T05:02:33.486Z,9.86
2023-05-02T05:05:02.665Z,9.89
2023-05-02T05:07:32.526Z,9.90
2023-05-02T05:10:00.658Z,9.96
2023-05-02T05:12:55.986Z,10.06
2023-05-02T05:15:26.107Z,10.09
2023-05-02T05:17:54.272Z,10.18
2023-05-02T05:24:12.545Z,10.38
2023-05-02T05:26:40.834Z,10.49
2023-05-02T05:29:09.086Z,10.67
2023-05-02T05:31:37.505Z,10.97
2023-05-02T05:34:05.807Z,11.49
2023-05-02T05:37:38.980Z,12.45
2023-05-02T05:40:09.117Z,13.35
2023-05-02T05:46:26.192Z,13.89
2023-05-02T05:48:54.517Z,13.97
2023-05-02T05:51:22.548Z,14.22
2023-05-02T05:53:50.761Z,14.58
2023-05-02T05:56:19.012Z,14.87
2023-05-02T05:58:47.443Z,15.14
2023-05-02T06:01:15.568Z,15.29
2023-05-02T06:03:43.976Z,15.16
2023-05-02T06:06:12.043Z,15.01
2023-05-02T06:08:39.699Z,15.01
2023-05-02T06:11:11.690Z,15.12
2023-05-02T06:13:39.508Z,15.34
2023-05-02T06:16:07.531Z,15.59
2023-05-02T06:19:26.071Z,15.58
2023-05-02T06:21:54.337Z,15.88
2023-05-02T06:24:21.986Z,16.19
2023-05-02T06:26:51.693Z,16.75
2023-05-02T06:29:19.708Z,17.10
2023-05-02T06:31:47.460Z,17.25
2023-05-02T06:34:15.216Z,17.28
2023-05-02T06:36:42.839Z,17.44
2023-05-02T06:39:10.523Z,17.18
2023-05-02T06:41:38.273Z,16.72
2023-05-02T06:44:06.022Z,16.56
2023-05-02T06:46:33.942Z,16.83
2023-05-02T06:49:01.736Z,17.00
2023-05-02T06:51:29.689Z,17.13
2023-05-02T06:53:57.347Z,17.59
2023-05-02T06:56:26.178Z,17.99
2023-05-02T06:58:54.000Z,18.26
2023-05-02T07:01:21.721Z,18.36
2023-05-02T07:03:49.543Z,18.39
2023-05-02T07:06:42.868Z,18.36
2023-05-02T07:09:10.746Z,18.65
2023-05-02T07:11:38.460Z,18.99
2023-05-02T07:14:06.119Z,19.03
2023-05-02T07:16:33.971Z,19.17
2023-05-02T07:19:27.010Z,19.41
2023-05-02T07:21:54.709Z,19.65
2023-05-02T07:24:22.352Z,19.87
2023-05-02T07:26:50.084Z,20.17
2023-05-02T07:29:17.818Z,20.41
2023-05-02T07:31:45.758Z,20.69
2023-05-02T07:34:13.542Z,21.07
2023-05-02T07:36:41.312Z,21.09
2023-05-02T07:39:15.054Z,20.91
2023-05-02T07:41:42.873Z,21.03
2023-05-02T07:44:11.697Z,21.09
2023-05-02T07:46:39.413Z,21.11
2023-05-02T07:49:07.237Z,21.16
2023-05-02T07:51:34.949Z,21.51
2023-05-02T07:54:02.718Z,21.79
2023-05-02T07:56:30.397Z,21.95
2023-05-02T07:59:15.485Z,21.82
2023-05-02T08:01:43.863Z,21.73
2023-05-02T08:04:11.892Z,21.80
2023-05-02T08:06:39.846Z,22.01
2023-05-02T08:09:07.589Z,22.08
2023-05-02T08:11:35.244Z,22.36
2023-05-02T08:14:02.981Z,22.41
2023-05-02T08:16:30.848Z,22.41
2023-05-02T08:18:58.654Z,23.09
2023-05-02T08:21:27.616Z,23.44
2023-05-02T08:23:59.091Z,23.31
2023-05-02T08:26:36.683Z,23.23
2023-05-02T08:29:04.714Z,22.97
2023-05-02T08:31:51.648Z,22.99
2023-05-02T08:34:19.428Z,23.13
2023-05-02T08:36:47.646Z,23.63
2023-05-02T08:39:16.997Z,24.11
2023-05-02T08:41:45.071Z,24.66
2023-05-02T08:44:12.823Z,24.00
2023-05-02T08:46:42.201Z,23.85
2023-05-02T08:49:15.743Z,23.69
2023-05-02T08:51:51.538Z,23.72
2023-05-02T08:54:21.312Z,23.80
2023-05-02T08:56:49.375Z,24.17
2023-05-02T08:59:16.995Z,24.36
2023-05-02T09:01:49.885Z,24.45
2023-05-02T09:04:23.799Z,24.35
2023-05-02T09:07:42.052Z,24.43
2023-05-02T09:10:10.009Z,24.58
2023-05-02T09:12:37.716Z,24.91
2023-05-02T09:15:18.957Z,25.04
2023-05-02T09:17:48.816Z,24.32
2023-05-02T09:20:17.167Z,23.94
2023-05-02T09:22:50.617Z,23.87
2023-05-02T09:25:20.183Z,23.80
2023-05-02T09:28:01.512Z,23.70
2023-05-02T09:30:29.218Z,23.47
2023-05-02T09:32:56.926Z,23.33
2023-05-02T09:35:24.919Z,23.95
2023-05-02T09:37:57.552Z,24.43
2023-05-02T09:40:27.570Z,24.49
2023-05-02T09:42:56.157Z,24.04
2023-05-02T09:45:25.786Z,23.43
2023-05-02T09:47:53.810Z,23.11
2023-05-02T09:50:38.246Z,22.98
2023-05-02T09:53:09.600Z,23.03
2023-05-02T09:55:37.820Z,22.61
2023-05-02T09:58:06.124Z,22.60
2023-05-02T10:00:44.777Z,22.48
2023-05-02T10:03:16.881Z,22.50
2023-05-02T10:05:46.347Z,22.65
2023-05-02T10:08:16.436Z,23.09
2023-05-02T10:10:50.374Z,23.23
2023-05-02T10:13:21.497Z,23.24
2023-05-02T10:16:00.702Z,23.33
2023-05-02T10:18:52.623Z,23.14
2023-05-02T10:21:27.398Z,23.08
2023-05-02T10:23:55.397Z,22.84
2023-05-02T10:26:23.648Z,22.42
2023-05-02T10:28:52.259Z,22.09
2023-05-02T10:31:21.604Z,22.36
2023-05-02T10:34:17.069Z,22.41
2023-05-02T10:36:44.934Z,22.26
2023-05-02T10:39:12.704Z,21.90
2023-05-02T10:41:41.951Z,21.44
2023-05-02T10:44:09.869Z,21.36
2023-05-02T10:46:43.350Z,20.98
2023-05-02T10:49:12.866Z,20.88
2023-05-02T10:51:42.279Z,20.90
2023-05-02T10:54:35.241Z,20.94
2023-05-02T10:57:04.483Z,20.79
2023-05-02T10:59:34.831Z,20.50
2023-05-02T11:02:04.527Z,20.43
2023-05-02T11:05:04.205Z,20.15
2023-05-02T11:07:34.514Z,19.70
2023-05-02T11:10:17.709Z,19.45
2023-05-02T11:12:49.377Z,19.35
2023-05-02T11:15:23.152Z,19.29
2023-05-02T11:18:03.976Z,19.14
2023-05-02T11:20:32.570Z,19.09
2023-05-02T11:23:26.762Z,19.07
2023-05-02T11:26:00.709Z,18.91
2023-05-02T11:28:48.016Z,18.65
2023-05-02T11:31:28.606Z,18.12
2023-05-02T11:34:15.387Z,17.62
2023-05-02T11:36:43.481Z,17.29
2023-05-02T11:39:21.126Z,16.97
2023-05-02T11:42:39.986Z,16.65
2023-05-02T11:45:09.265Z,16.57
2023-05-02T11:47:37.521Z,16.58
2023-05-02T11:50:06.143Z,16.62
2023-05-02T11:52:41.911Z,16.63
2023-05-02T11:55:15.023Z,16.70
2023-05-02T11:57:43.060Z,16.99
2023-05-02T12:00:12.011Z,17.10
2023-05-02T12:02:42.461Z,17.11
2023-05-02T12:05:12.550Z,17.09
2023-05-02T12:07:49.187Z,17.29
2023-05-02T12:10:17.272Z,17.60
2023-05-02T12:12:45.088Z,17.89
2023-05-02T12:15:13.420Z,18.20
2023-05-02T12:17:43.698Z,18.45
2023-05-02T12:20:12.493Z,18.57
2023-05-02T12:22:40.580Z,18.88
2023-05-02T12:25:08.771Z,19.50
2023-05-02T12:27:38.185Z,20.34
2023-05-02T12:30:06.811Z,20.69
2023-05-02T12:32:36.525Z,21.08
2023-05-02T12:35:04.657Z,21.45
2023-05-02T12:37:32.428Z,22.33
2023-05-02T12:40:00.804Z,23.08
2023-05-02T12:42:28.929Z,23.65
2023-05-02T12:44:57.111Z,24.06
2023-05-02T12:47:25.376Z,24.43
2023-05-02T12:49:56.415Z,25.18
2023-05-02T12:52:48.416Z,25.86
2023-05-02T12:55:27.355Z,26.03
2023-05-02T12:58:02.164Z,26.02
2023-05-02T13:00:35.320Z,25.34
2023-05-02T13:03:04.126Z,24.57
2023-05-02T13:05:31.933Z,24.36
2023-05-02T13:07:59.917Z,24.05
2023-05-02T13:10:28.361Z,23.40
2023-05-02T13:12:56.104Z,22.55
2023-05-02T13:15:23.959Z,21.52
2023-05-02T13:17:52.525Z,21.16
2023-05-02T13:20:20.461Z,21.13
2023-05-02T13:23:13.006Z,20.63
2023-05-02T13:25:40.987Z,20.45
2023-05-02T13:28:08.836Z,20.67
2023-05-02T13:30:37.001Z,20.82
2023-05-02T13:33:05.384Z,20.95
2023-05-02T13:35:35.277Z,21.00
2023-05-02T13:38:03.963Z,20.95
2023-05-02T13:40:31.770Z,20.74
2023-05-02T13:42:59.572Z,20.63
2023-05-02T13:45:27.431Z,21.22
2023-05-02T13:47:55.315Z,22.10
2023-05-02T13:50:23.121Z,22.34
2023-05-02T13:52:51.245Z,22.41
2023-05-02T13:55:19.811Z,22.85
2023-05-02T13:57:48.042Z,22.69
2023-05-02T14:00:16.388Z,22.24
2023-05-02T14:02:44.254Z,22.28
2023-05-02T14:05:12.093Z,22.00
2023-05-02T14:07:39.864Z,21.74
2023-05-02T14:10:08.556Z,21.62
2023-05-02T14:12:36.321Z,21.43
2023-05-02T14:15:04.525Z,21.09
2023-05-02T14:17:32.547Z,20.93
2023-05-02T14:20:00.729Z,21.42
2023-05-02T14:22:28.785Z,21.62
2023-05-02T14:24:56.473Z,21.42
2023-05-02T14:27:25.748Z,21.23
2023-05-02T14:29:53.733Z,21.45
2023-05-02T14:32:21.798Z,21.72
2023-05-02T14:34:49.472Z,21.61
2023-05-02T14:37:17.430Z,21.55
2023-05-02T14:39:47.440Z,21.31
2023-05-02T14:42:16.209Z,21.13
2023-05-02T14:44:43.990Z,21.23
2023-05-02T14:47:12.298Z,21.32
2023-05-02T14:54:07.804Z,20.43
2023-05-02T14:56:35.727Z,20.38
2023-05-02T14:59:04.028Z,20.38
2023-05-02T15:01:31.894Z,20.46
2023-05-02T15:04:06.506Z,20.47
2023-05-02T15:06:36.001Z,20.50
2023-05-02T15:09:05.167Z,20.43
2023-05-02T15:11:33.130Z,20.21
2023-05-02T15:14:01.069Z,19.97
2023-05-02T15:16:29.803Z,19.86
2023-05-02T15:19:25.244Z,19.80
2023-05-02T15:21:57.685Z,19.78
2023-05-02T15:24:25.883Z,19.73
2023-05-02T15:26:53.601Z,19.64
2023-05-02T15:29:21.410Z,19.58
2023-05-02T15:31:50.224Z,19.56
2023-05-02T15:34:18.150Z,19.50
2023-05-02T15:36:47.624Z,19.44
2023-05-02T15:39:15.344Z,19.43
2023-05-02T15:41:43.749Z,19.26
2023-05-02T15:44:12.052Z,19.31
2023-05-02T15:46:42.385Z,19.28
2023-05-02T15:49:10.394Z,19.25
2023-05-02T15:51:38.358Z,19.34
2023-05-02T15:54:09.533Z,19.41
2023-05-02T15:56:37.758Z,19.34
2023-05-02T15:59:05.514Z,19.34
2023-05-02T16:01:33.324Z,19.36
2023-05-02T16:04:01.454Z,19.52
2023-05-02T16:06:30.466Z,19.60
2023-05-02T16:09:48.235Z,19.64
2023-05-02T16:12:16.123Z,19.62
2023-05-02T16:15:03.638Z,19.61
2023-05-02T16:17:31.947Z,19.44
2023-05-02T16:20:02.535Z,19.43
2023-05-02T16:22:30.744Z,19.42
2023-05-02T16:24:58.630Z,19.39
2023-05-02T16:27:26.947Z,19.28
2023-05-02T16:29:54.822Z,19.23
2023-05-02T16:32:23.889Z,19.25
2023-05-02T16:35:00.054Z,19.21
2023-05-02T16:37:27.871Z,19.17
2023-05-02T16:40:21.420Z,19.08
2023-05-02T16:42:49.284Z,19.02
2023-05-02T16:45:17.015Z,19.01
2023-05-02T16:47:45.028Z,19.00
2023-05-02T16:50:12.760Z,19.02
2023-05-02T16:52:40.496Z,19.06
2023-05-02T16:55:09.036Z,19.07
2023-05-02T16:57:36.882Z,19.05
2023-05-02T17:00:05.495Z,18.95
2023-05-02T17:02:33.934Z,18.92
2023-05-02T17:05:02.466Z,18.85
2023-05-02T17:07:30.353Z,18.78
2023-05-02T17:09:58.214Z,18.79
2023-05-02T17:12:25.969Z,18.74
2023-05-02T17:14:53.812Z,18.70
2023-05-02T17:17:23.573Z,18.65
2023-05-02T17:19:51.466Z,18.63
2023-05-02T17:22:19.213Z,18.58
2023-05-02T17:24:52.828Z,18.49
2023-05-02T17:27:20.701Z,18.44
2023-05-02T17:29:48.672Z,18.43
2023-05-02T17:32:16.522Z,18.31
2023-05-02T17:34:45.051Z,18.19
2023-05-02T17:37:13.030Z,18.15
2023-05-02T17:39:40.799Z,18.12
2023-05-02T17:42:08.571Z,18.09
2023-05-02T17:44:36.358Z,18.08
2023-05-02T17:47:04.672Z,18.09
2023-05-02T17:49:33.755Z,18.09
2023-05-02T17:52:01.620Z,18.03
2023-05-02T17:54:29.482Z,18.02
2023-05-02T17:56:57.336Z,17.96
2023-05-02T17:59:25.217Z,17.94
2023-05-02T18:01:53.573Z,17.91
2023-05-02T18:04:21.411Z,17.87
2023-05-02T18:06:49.854Z,17.86
2023-05-02T18:09:17.766Z,17.80
2023-05-02T18:11:45.689Z,17.82
2023-05-02T18:14:13.656Z,17.85
2023-05-02T18:16:47.088Z,17.83
2023-05-02T18:19:16.002Z,17.78
2023-05-02T18:21:44.942Z,17.77
2023-05-02T18:24:12.770Z,17.70
2023-05-02T18:26:40.611Z,17.66
2023-05-02T18:29:09.356Z,17.67
2023-05-02T18:31:40.320Z,17.60
2023-05-02T18:34:08.410Z,17.54
2023-05-02T18:36:39.575Z,17.52
2023-05-02T18:39:08.938Z,17.43
2023-05-02T18:41:39.298Z,17.40
2023-05-02T18:44:10.500Z,17.36
2023-05-02T18:46:38.469Z,17.34
2023-05-02T18:49:09.066Z,17.33
2023-05-02T18:51:53.623Z,17.26
2023-05-02T18:54:23.393Z,17.25
2023-05-02T18:56:51.678Z,17.26
2023-05-02T18:59:19.318Z,17.26
2023-05-02T19:15:49.268Z,17.17
2023-05-02T19:18:17.290Z,17.14
2023-05-02T19:24:59.468Z,16.92
2023-05-02T19:27:27.472Z,16.85
2023-05-02T19:29:57.525Z,16.84
2023-05-02T19:32:25.414Z,16.85
2023-05-02T19:40:57.883Z,16.49
2023-05-02T19:43:25.724Z,16.34
2023-05-02T19:47:11.880Z,16.23
2023-05-02T19:49:39.660Z,16.09
2023-05-02T19:52:10.617Z,15.99
2023-05-02T19:54:38.394Z,15.92
2023-05-02T19:57:06.089Z,15.89
2023-05-02T19:59:33.742Z,15.84
2023-05-02T20:02:01.891Z,15.81
2023-05-02T20:04:29.519Z,15.75
2023-05-02T20:06:57.137Z,15.71
2023-05-02T20:09:25.220Z,15.70
2023-05-02T20:11:52.872Z,15.65
2023-05-02T20:14:20.509Z,15.58
2023-05-02T20:16:48.352Z,15.54
2023-05-02T20:19:19.978Z,15.53
2023-05-02T20:21:49.603Z,15.45
2023-05-02T20:24:17.397Z,15.40
2023-05-02T20:26:45.132Z,15.34
2023-05-02T20:29:12.946Z,15.26
2023-05-02T20:31:43.402Z,15.20
2023-05-02T20:34:11.148Z,15.13
2023-05-02T20:36:39.095Z,15.08
2023-05-02T20:39:09.152Z,15.02
2023-05-02T20:41:37.808Z,14.96
2023-05-02T20:44:06.390Z,14.91
2023-05-02T20:46:34.062Z,14.87
2023-05-02T20:56:36.315Z,14.80
2023-05-02T20:59:02.690Z,14.72
2023-05-02T21:01:32.780Z,14.65
2023-05-02T21:03:59.271Z,14.58
2023-05-02T21:06:26.089Z,14.50
2023-05-02T21:08:54.455Z,14.44
2023-05-02T21:11:21.347Z,14.44
2023-05-02T21:14:52.340Z,14.38
2023-05-02T21:17:18.850Z,14.30
2023-05-02T21:19:45.315Z,14.29
2023-05-02T21:22:11.620Z,14.27
2023-05-02T21:24:37.991Z,14.25
2023-05-02T21:27:04.907Z,14.25
2023-05-02T21:29:33.080Z,14.21
2023-05-02T21:31:59.561Z,14.18
2023-05-02T21:35:29.161Z,14.09
2023-05-02T21:37:55.795Z,13.96
2023-05-02T21:40:22.137Z,13.94
2023-05-02T21:42:48.498Z,13.94
2023-05-02T21:45:15.122Z,13.90
2023-05-02T21:47:41.450Z,13.82
2023-05-02T21:50:08.018Z,13.78
2023-05-02T21:52:34.383Z,13.75
2023-05-02T21:55:00.764Z,13.67
2023-05-02T21:57:28.849Z,13.60
2023-05-02T21:59:55.146Z,13.57
2023-05-02T22:02:22.899Z,13.51
2023-05-02T22:04:50.253Z,13.42
2023-05-02T22:07:16.564Z,13.23
2023-05-02T22:09:42.871Z,13.11
2023-05-02T22:12:09.202Z,13.01
2023-05-02T22:14:44.402Z,12.88
2023-05-02T22:17:12.966Z,12.79
2023-05-02T22:19:40.067Z,12.78
2023-05-02T22:22:06.769Z,12.73
2023-05-02T22:25:23.582Z,12.69
2023-05-02T22:27:50.210Z,12.68
2023-05-02T22:30:16.733Z,12.68
2023-05-02T22:32:43.131Z,12.64
2023-05-02T22:35:10.074Z,12.63
2023-05-02T22:37:36.493Z,12.60
2023-05-02T22:40:03.459Z,12.58
2023-05-02T22:42:30.151Z,12.59
2023-05-02T22:44:56.515Z,12.58
2023-05-02T22:47:23.028Z,12.56
2023-05-02T22:49:50.333Z,12.55
2023-05-02T22:52:17.622Z,12.51
2023-05-02T22:54:44.252Z,12.46
2023-05-02T22:57:10.548Z,12.44
2023-05-02T22:59:37.010Z,12.45
2023-05-02T23:02:03.726Z,12.45
2023-05-02T23:04:32.311Z,12.39
2023-05-02T23:06:59.185Z,12.35
2023-05-02T23:09:25.560Z,12.33
2023-05-02T23:11:52.026Z,12.29
2023-05-02T23:14:21.149Z,12.23
2023-05-02T23:16:49.234Z,12.20
2023-05-02T23:19:16.483Z,12.16
2023-05-02T23:21:42.781Z,12.13
2023-05-02T23:24:09.987Z,12.08
2023-05-02T23:26:36.255Z,12.10
2023-05-02T23:29:02.567Z,12.14
2023-05-02T23:31:29.194Z,12.09
2023-05-02T23:33:55.551Z,12.05
2023-05-02T23:36:21.881Z,12.02
2023-05-02T23:38:48.474Z,11.98
2023-05-02T23:41:15.025Z,11.96
2023-05-02T23:43:41.357Z,11.98
2023-05-02T23:46:07.696Z,11.97
2023-05-02T23:48:35.659Z,11.98
2023-05-02T23:51:01.998Z,11.95
2023-05-02T23:53:50.634Z,11.94
2023-05-02T23:56:16.942Z,11.94
2023-05-02T23:59:08.496Z,11.91
